»·PEaware :: SKY73 KCLM-KFHR

SKY73 :: KCLM-KFHR

FLIGHT INFORMATION

Flight Status: Arrived
Operator:
Sky High Charters
More flights by this operator :: More flights under this callsign
Pilot: Anonymous 27411 (27411)
Aircraft: BEECH AIRCRAFT BARON
(BE58)
More flights by this aircraft type
Origin: KCLM Fairchild Intl
United States
Destination: KFHR Friday Harbor
United States
More flights between these airports :: More routes between these airports
Route: WATTR7 WATTR FHR
File this flight plan on PilotEdge
Remarks: no gps, ignoring the notam elwha lom oos. planning on ndb appoach into fhr. thank you
Altitude:
(Current/Filed)
3,000ft
Speed:
(Current/Filed)
175kts
Departed: 09-Jan-22 05:42 PM
Arrived: 09-Jan-22 06:10 PM
Distance/Time
Traveled:
31nm/0:28
Distance/Time
To Go:
Arrived

Flight Plot

Page will automatically refresh every two minutes.

Flight plan parsing failed; only flown route is shown


Map Options




Map Legend


Flown Route
Filed Route
Departure Airport
Arrival Airport
Navaid (VOR, NDB)
Fix

Horizontal Profiles

Position Reports

Time Latitude Longitude Heading Altitude Ground
Speed
09-Jan-22 17:24 48.117074 -123.500549 104 270ft 0kts
09-Jan-22 17:26 48.117074 -123.500549 104 270ft 0kts
09-Jan-22 17:27 48.117074 -123.500549 104 270ft 0kts
09-Jan-22 17:27 48.117074 -123.500549 104 270ft 0kts
09-Jan-22 17:28 48.117993 -123.500460 285 268ft 9kts
09-Jan-22 17:29 48.118829 -123.505298 284 272ft 13kts
09-Jan-22 17:30 48.119933 -123.511674 282 267ft 14kts
09-Jan-22 17:31 48.120254 -123.511913 92 265ft 0kts
09-Jan-22 17:32 48.120254 -123.511913 92 265ft 0kts
09-Jan-22 17:33 48.120254 -123.511913 92 265ft 0kts
09-Jan-22 17:34 48.120254 -123.511913 92 265ft 0kts
09-Jan-22 17:35 48.120254 -123.511913 92 265ft 0kts
09-Jan-22 17:36 48.120254 -123.511913 92 265ft 0kts
09-Jan-22 17:37 48.120254 -123.511913 92 265ft 0kts
09-Jan-22 17:38 48.120254 -123.511913 92 265ft 0kts
09-Jan-22 17:39 48.120299 -123.511725 21 265ft 0kts
09-Jan-22 17:40 48.120455 -123.511651 15 265ft 8kts
09-Jan-22 17:41 48.118207 -123.495310 105 399ft 110kts
09-Jan-22 17:42 48.119235 -123.444725 66 1998ft 124kts
09-Jan-22 17:43 48.121994 -123.397679 100 3651ft 116kts
09-Jan-22 17:44 48.123137 -123.348430 93 4979ft 127kts
09-Jan-22 17:45 48.125978 -123.289726 93 5602ft 159kts
09-Jan-22 17:46 48.125869 -123.216724 96 5553ft 170kts
09-Jan-22 17:47 48.123762 -123.143243 91 5451ft 184kts
09-Jan-22 17:48 48.129504 -123.067070 91 5451ft 181kts
09-Jan-22 17:49 48.126304 -122.993058 96 4952ft 175kts
09-Jan-22 17:50 48.153076 -122.937414 21 3811ft 196kts
09-Jan-22 17:51 48.206549 -122.937923 349 3100ft 193kts
09-Jan-22 17:52 48.258412 -122.961362 351 3147ft 191kts
09-Jan-22 17:53 48.311594 -122.974604 357 3078ft 189kts
09-Jan-22 17:54 48.363173 -122.987602 350 3033ft 193kts
09-Jan-22 17:55 48.415337 -123.000790 357 2972ft 184kts
09-Jan-22 17:56 48.464031 -123.013847 351 3275ft 177kts
09-Jan-22 17:57 48.507771 -123.021335 356 2970ft 137kts
09-Jan-22 17:58 48.535995 -122.992252 89 3088ft 157kts
09-Jan-22 17:59 48.506015 -122.974397 252 2955ft 136kts
09-Jan-22 18:00 48.497668 -123.027077 201 3034ft 154kts
09-Jan-22 18:01 48.452885 -123.028356 185 2337ft 160kts
09-Jan-22 18:02 48.412274 -123.017677 127 2414ft 150kts
09-Jan-22 18:03 48.385317 -122.965648 129 2356ft 159kts
09-Jan-22 18:04 48.369147 -122.980786 333 2333ft 129kts
09-Jan-22 18:05 48.397307 -123.004563 354 1807ft 121kts
09-Jan-22 18:06 48.430159 -123.007731 357 861ft 120kts
09-Jan-22 18:07 48.465275 -123.013648 350 854ft 129kts
09-Jan-22 18:08 48.500643 -123.022731 352 578ft 126kts
09-Jan-22 18:09 48.523077 -123.024419 354 101ft 14kts
09-Jan-22 18:10 48.523626 -123.025013 303 106ft 0kts
09-Jan-22 18:11 48.524808 -123.025219 357 110ft 11kts
09-Jan-22 18:12 48.527348 -123.026139 349 123ft 0kts
09-Jan-22 18:13 48.527348 -123.026139 349 123ft 0kts
09-Jan-22 18:14 48.527348 -123.026139 349 123ft 0kts
09-Jan-22 18:15 48.527348 -123.026139 349 123ft 0kts
09-Jan-22 18:16 48.527348 -123.026139 349 123ft 0kts
09-Jan-22 18:17 48.527348 -123.026139 349 123ft 0kts
09-Jan-22 18:18 48.527348 -123.026139 349 123ft 0kts
09-Jan-22 18:19 48.527348 -123.026139 349 123ft 0kts

Navigation Log

Ident Type
Flight plan parsing failed, navigation log unavailable